createdAt,value
2022-10-12T00:00:17.097Z,10.50
2022-10-12T00:02:43.779Z,9.55
2022-10-12T00:05:10.211Z,12.00
2022-10-12T00:07:37.246Z,9.98
2022-10-12T00:10:04.135Z,11.52
2022-10-12T00:12:30.630Z,10.95
2022-10-12T00:14:57.188Z,10.95
2022-10-12T00:17:23.643Z,10.25
2022-10-12T00:19:50.321Z,8.90
2022-10-12T00:22:16.853Z,10.18
2022-10-12T00:24:43.355Z,11.07
2022-10-12T00:27:09.833Z,10.85
2022-10-12T00:29:37.095Z,10.90
2022-10-12T00:32:03.628Z,10.60
2022-10-12T00:34:30.053Z,11.35
2022-10-12T00:36:56.803Z,9.52
2022-10-12T00:39:23.317Z,11.07
2022-10-12T00:41:49.789Z,8.23
2022-10-12T00:44:35.114Z,10.52
2022-10-12T00:47:03.651Z,13.10
2022-10-12T00:49:30.099Z,11.27
2022-10-12T00:52:00.299Z,10.63
2022-10-12T00:54:29.809Z,11.57
2022-10-12T00:56:56.753Z,12.85
2022-10-12T00:59:26.562Z,13.70
2022-10-12T01:01:53.507Z,10.60
2022-10-12T01:04:23.858Z,12.73
2022-10-12T01:06:51.968Z,12.15
2022-10-12T01:09:19.172Z,14.85
2022-10-12T01:11:45.704Z,12.68
2022-10-12T01:14:12.418Z,10.07
2022-10-12T01:16:38.856Z,16.98
2022-10-12T01:19:17.693Z,10.40
2022-10-12T01:21:48.363Z,18.48
2022-10-12T01:24:24.072Z,13.60
2022-10-12T01:27:02.962Z,11.18
2022-10-12T01:29:48.286Z,10.55
2022-10-12T01:32:33.702Z,11.63
2022-10-12T01:35:04.086Z,15.93
2022-10-12T01:37:36.623Z,11.68
2022-10-12T01:40:07.672Z,12.77
2022-10-12T01:42:37.326Z,10.93
2022-10-12T01:45:13.590Z,15.33
2022-10-12T01:47:41.485Z,13.07
2022-10-12T01:50:10.996Z,12.33
2022-10-12T01:52:55.725Z,15.05
2022-10-12T01:56:00.802Z,12.93
2022-10-12T01:58:33.208Z,11.90
2022-10-12T02:01:06.377Z,10.02
2022-10-12T02:03:41.416Z,12.57
2022-10-12T02:06:09.775Z,11.18
2022-10-12T02:08:42.483Z,11.80
2022-10-12T02:11:15.722Z,16.67
2022-10-12T02:13:44.892Z,14.07
2022-10-12T02:16:13.874Z,13.35
2022-10-12T02:18:46.728Z,10.98
2022-10-12T02:21:16.126Z,11.63
2022-10-12T02:23:43.593Z,14.07
2022-10-12T02:26:11.338Z,12.40
2022-10-12T02:28:38.676Z,13.50
2022-10-12T02:31:31.452Z,15.00
2022-10-12T02:34:00.739Z,9.70
2022-10-12T02:36:39.529Z,12.10
2022-10-12T02:39:17.901Z,12.32
2022-10-12T02:41:49.385Z,9.07
2022-10-12T02:44:17.735Z,11.93
2022-10-12T02:46:45.110Z,10.30
2022-10-12T02:49:12.136Z,10.70
2022-10-12T02:51:39.786Z,10.53
2022-10-12T02:54:06.411Z,10.82
2022-10-12T02:56:32.863Z,11.55
2022-10-12T02:58:59.487Z,12.93
2022-10-12T03:01:26.051Z,10.82
2022-10-12T03:03:52.555Z,10.45
2022-10-12T03:06:20.154Z,11.45
2022-10-12T03:08:46.842Z,11.97
2022-10-12T03:11:14.149Z,8.13
2022-10-12T03:13:40.789Z,12.50
2022-10-12T03:16:09.226Z,10.90
2022-10-12T03:18:36.076Z,11.10
2022-10-12T03:21:02.654Z,16.10
2022-10-12T03:23:29.100Z,12.23
2022-10-12T03:25:55.582Z,11.33
2022-10-12T03:28:22.065Z,8.27
2022-10-12T03:30:48.569Z,10.83
2022-10-12T03:33:15.013Z,9.30
2022-10-12T03:35:43.528Z,12.97
2022-10-12T03:38:09.984Z,8.70
2022-10-12T03:40:37.538Z,11.63
2022-10-12T03:43:04.378Z,12.48
2022-10-12T03:45:30.833Z,12.90
2022-10-12T03:48:01.021Z,9.20
2022-10-12T03:50:29.077Z,11.13
2022-10-12T03:52:55.578Z,8.57
2022-10-12T03:55:23.581Z,10.27
2022-10-12T03:57:50.299Z,12.35
2022-10-12T04:00:16.983Z,9.73
2022-10-12T04:02:43.458Z,8.48
2022-10-12T04:05:10.118Z,11.23
2022-10-12T04:07:36.803Z,9.02
2022-10-12T04:10:04.241Z,9.50
2022-10-12T04:12:30.766Z,10.23
2022-10-12T04:14:57.213Z,10.10
2022-10-12T04:17:23.864Z,13.30
2022-10-12T04:19:50.361Z,13.43
2022-10-12T04:22:17.113Z,10.25
2022-10-12T04:24:43.871Z,14.47
2022-10-12T04:27:11.001Z,11.20
2022-10-12T04:29:37.495Z,9.90
2022-10-12T04:32:05.256Z,9.43
2022-10-12T04:34:33.352Z,13.87
2022-10-12T04:36:59.820Z,10.57
2022-10-12T04:39:26.351Z,13.37
2022-10-12T04:41:52.859Z,11.47
2022-10-12T04:44:21.828Z,10.73
2022-10-12T04:46:49.036Z,8.97
2022-10-12T04:49:16.557Z,7.60
2022-10-12T04:51:44.360Z,8.97
2022-10-12T04:54:11.289Z,12.23
2022-10-12T04:56:37.950Z,9.63
2022-10-12T04:59:04.430Z,8.13
2022-10-12T05:01:31.933Z,11.53
2022-10-12T05:04:00.209Z,14.88
2022-10-12T05:06:27.007Z,10.47
2022-10-12T05:08:53.711Z,9.70
2022-10-12T05:11:20.270Z,11.88
2022-10-12T05:13:46.763Z,10.82
2022-10-12T05:16:13.535Z,12.70
2022-10-12T05:18:40.220Z,13.30
2022-10-12T05:21:06.805Z,10.93
2022-10-12T05:23:33.473Z,11.85
2022-10-12T05:26:01.322Z,11.75
2022-10-12T05:28:28.229Z,10.77
2022-10-12T05:30:57.777Z,12.83
2022-10-12T05:33:24.440Z,13.30
2022-10-12T05:35:56.063Z,13.50
2022-10-12T05:38:22.937Z,15.30
2022-10-12T05:40:49.608Z,17.65
2022-10-12T05:43:16.109Z,15.47
2022-10-12T05:45:42.857Z,15.07
2022-10-12T05:48:09.317Z,13.30
2022-10-12T05:50:35.797Z,10.30
2022-10-12T05:53:02.319Z,13.17
2022-10-12T05:55:28.811Z,17.20
2022-10-12T05:57:55.714Z,13.40
2022-10-12T06:00:22.240Z,13.98
2022-10-12T06:02:48.735Z,13.13
2022-10-12T06:05:15.199Z,18.90
2022-10-12T06:07:41.705Z,9.77
2022-10-12T06:10:08.949Z,15.00
2022-10-12T06:12:35.709Z,15.93
2022-10-12T06:15:02.761Z,14.00
2022-10-12T06:17:29.322Z,12.23
2022-10-12T06:19:55.813Z,15.03
2022-10-12T06:22:22.268Z,15.43
2022-10-12T06:24:48.949Z,16.90
2022-10-12T06:27:17.434Z,13.85
2022-10-12T06:29:43.890Z,19.43
2022-10-12T06:32:10.399Z,22.17
2022-10-12T06:34:36.848Z,15.40
2022-10-12T06:37:03.359Z,18.75
2022-10-12T06:39:30.228Z,16.43
2022-10-12T06:41:56.823Z,14.35
2022-10-12T06:44:24.136Z,15.80
2022-10-12T06:46:50.657Z,12.65
2022-10-12T06:49:17.333Z,16.83
2022-10-12T06:51:43.802Z,17.33
2022-10-12T06:54:10.341Z,19.80
2022-10-12T06:56:38.273Z,16.37
2022-10-12T06:59:04.715Z,17.90
2022-10-12T07:01:31.318Z,18.65
2022-10-12T07:04:00.670Z,22.37
2022-10-12T07:06:27.565Z,15.50
2022-10-12T07:08:54.770Z,17.33
2022-10-12T07:11:21.279Z,14.77
2022-10-12T07:13:48.825Z,16.20
2022-10-12T07:16:15.454Z,19.27
2022-10-12T07:18:42.042Z,18.03
2022-10-12T07:21:08.608Z,20.52
2022-10-12T07:23:35.314Z,17.17
2022-10-12T07:26:03.616Z,23.75
2022-10-12T07:28:30.221Z,19.80
2022-10-12T07:31:00.917Z,31.20
2022-10-12T07:33:27.382Z,18.70
2022-10-12T07:36:14.350Z,18.50
2022-10-12T07:38:46.134Z,19.13
2022-10-12T07:41:13.075Z,23.13
2022-10-12T07:43:39.552Z,18.05
2022-10-12T07:46:06.568Z,20.05
2022-10-12T07:48:33.511Z,19.65
2022-10-12T07:51:06.924Z,18.00
2022-10-12T07:53:34.251Z,20.08
2022-10-12T07:56:15.050Z,19.35
2022-10-12T07:58:42.408Z,19.27
2022-10-12T08:01:09.726Z,17.45
2022-10-12T08:03:36.500Z,18.15
2022-10-12T08:06:09.716Z,16.58
2022-10-12T08:08:36.390Z,13.52
2022-10-12T08:11:03.440Z,15.98
2022-10-12T08:13:30.128Z,14.38
2022-10-12T08:15:56.621Z,12.93
2022-10-12T08:18:23.161Z,9.68
2022-10-12T08:20:52.800Z,12.80
2022-10-12T08:23:19.302Z,9.85
2022-10-12T08:25:52.258Z,8.43
2022-10-12T08:28:18.906Z,11.75
2022-10-12T08:30:45.999Z,8.63
2022-10-12T08:33:13.461Z,11.65
2022-10-12T08:35:42.719Z,11.50
2022-10-12T08:38:11.237Z,8.05
2022-10-12T08:40:49.511Z,10.95
2022-10-12T08:43:35.219Z,11.05
2022-10-12T08:46:02.743Z,8.10
2022-10-12T08:48:48.113Z,8.63
2022-10-12T08:51:16.885Z,7.88
2022-10-12T08:54:03.489Z,8.45
2022-10-12T08:56:30.156Z,11.00
2022-10-12T08:58:56.887Z,10.82
2022-10-12T09:01:37.105Z,10.40
2022-10-12T09:04:03.768Z,8.55
2022-10-12T09:06:34.909Z,10.82
2022-10-12T09:09:19.672Z,10.07
2022-10-12T09:11:55.378Z,10.85
2022-10-12T09:14:27.339Z,10.95
2022-10-12T09:16:55.372Z,12.60
2022-10-12T09:19:23.514Z,9.27
2022-10-12T09:21:50.231Z,12.73
2022-10-12T09:24:22.090Z,10.73
2022-10-12T09:26:51.699Z,8.75
2022-10-12T09:29:28.089Z,9.43
2022-10-12T09:32:04.268Z,11.25
2022-10-12T09:34:31.452Z,10.02
2022-10-12T09:36:58.133Z,9.95
2022-10-12T09:39:29.671Z,13.43
2022-10-12T09:41:56.358Z,9.52
2022-10-12T09:44:28.911Z,11.10
2022-10-12T09:46:56.124Z,8.15
2022-10-12T09:49:22.742Z,9.48
2022-10-12T09:51:59.176Z,9.40
2022-10-12T09:54:27.406Z,7.60
2022-10-12T09:56:55.252Z,12.88
2022-10-12T09:59:27.743Z,10.80
2022-10-12T10:02:09.797Z,10.73
2022-10-12T10:04:36.863Z,8.13
2022-10-12T10:07:14.697Z,9.30
2022-10-12T10:09:41.149Z,10.98
2022-10-12T10:12:21.850Z,9.75
2022-10-12T10:14:48.934Z,12.20
2022-10-12T10:17:17.739Z,8.57
2022-10-12T10:19:51.005Z,7.63
2022-10-12T10:22:19.599Z,10.20
2022-10-12T10:24:50.168Z,6.45
2022-10-12T10:27:30.817Z,8.32
2022-10-12T10:30:29.969Z,6.85
2022-10-12T10:33:07.640Z,14.50
2022-10-12T10:35:34.838Z,9.95
2022-10-12T10:38:03.266Z,23.38
2022-10-12T10:40:31.501Z,10.23
2022-10-12T10:43:00.546Z,14.45
2022-10-12T10:45:29.455Z,13.75
2022-10-12T10:48:01.909Z,10.85
2022-10-12T10:50:36.739Z,17.70
2022-10-12T10:53:05.437Z,14.18
2022-10-12T10:55:42.717Z,10.77
2022-10-12T10:58:18.874Z,7.10
2022-10-12T11:00:46.656Z,11.63
2022-10-12T11:06:06.380Z,10.07
2022-10-12T11:08:34.622Z,7.28
2022-10-12T11:11:03.829Z,9.55
2022-10-12T11:13:38.505Z,19.83
2022-10-12T11:16:11.069Z,8.93
2022-10-12T11:18:50.131Z,11.15
2022-10-12T11:21:24.935Z,9.10
2022-10-12T11:23:57.108Z,9.18
2022-10-12T11:26:24.468Z,7.35
2022-10-12T11:28:51.497Z,10.85
2022-10-12T11:31:22.132Z,9.70
2022-10-12T11:33:49.444Z,7.85
2022-10-12T11:36:20.402Z,9.13
2022-10-12T11:38:48.481Z,12.20
2022-10-12T11:44:06.540Z,9.18
2022-10-12T11:46:39.304Z,8.65
2022-10-12T11:49:12.062Z,7.68
2022-10-12T11:51:38.544Z,6.97
2022-10-12T11:54:05.253Z,9.50
2022-10-12T11:56:41.246Z,9.55
2022-10-12T11:59:19.622Z,7.88
2022-10-12T12:01:49.245Z,7.90
2022-10-12T12:04:45.013Z,9.15
2022-10-12T12:07:30.456Z,13.38
2022-10-12T12:09:56.996Z,10.65
2022-10-12T12:12:27.912Z,9.40
2022-10-12T12:14:54.356Z,7.22
2022-10-12T12:17:25.042Z,11.82
2022-10-12T12:19:55.422Z,10.20
2022-10-12T12:22:28.998Z,16.65
2022-10-12T12:25:15.120Z,8.45
2022-10-12T12:27:52.324Z,7.22
2022-10-12T12:30:18.823Z,13.02
2022-10-12T12:32:48.269Z,6.65
2022-10-12T12:35:19.229Z,10.18
2022-10-12T12:37:46.245Z,8.57
2022-10-12T12:40:23.183Z,10.50
2022-10-12T12:42:49.789Z,10.15
2022-10-12T12:45:32.497Z,11.30
2022-10-12T12:47:59.117Z,11.02
2022-10-12T12:50:35.433Z,11.25
2022-10-12T12:53:22.131Z,10.43
2022-10-12T12:55:55.978Z,17.42
2022-10-12T12:58:31.569Z,11.30
2022-10-12T13:00:58.002Z,9.07
2022-10-12T13:03:42.921Z,5.97
2022-10-12T13:06:18.439Z,6.38
2022-10-12T13:09:02.543Z,9.57
2022-10-12T13:11:55.205Z,8.82
2022-10-12T13:14:32.275Z,6.60
2022-10-12T13:19:45.666Z,8.52
2022-10-12T13:22:18.966Z,6.18
2022-10-12T13:24:47.256Z,6.97
2022-10-12T13:27:19.640Z,7.30
2022-10-12T13:30:06.623Z,5.00
2022-10-12T13:32:46.263Z,8.52
2022-10-12T13:35:19.440Z,10.23
2022-10-12T13:37:59.380Z,8.68
2022-10-12T13:40:28.992Z,12.75
2022-10-12T13:42:55.788Z,6.93
2022-10-12T13:45:22.427Z,14.25
2022-10-12T13:47:49.146Z,8.48
2022-10-12T13:50:16.812Z,6.85
2022-10-12T13:52:51.456Z,7.65
2022-10-12T13:55:18.251Z,7.38
2022-10-12T13:57:50.256Z,7.55
2022-10-12T14:00:16.911Z,7.45
2022-10-12T14:02:53.164Z,7.10
2022-10-12T14:05:21.070Z,10.60
2022-10-12T14:07:49.502Z,9.65
2022-10-12T14:10:21.539Z,6.57
2022-10-12T14:12:53.162Z,9.07
2022-10-12T14:15:21.152Z,8.63
2022-10-12T14:17:48.672Z,10.35
2022-10-12T14:20:17.109Z,6.78
2022-10-12T14:22:46.822Z,9.32
2022-10-12T14:25:16.372Z,6.03
2022-10-12T14:27:43.520Z,10.20
2022-10-12T14:30:21.117Z,5.70
2022-10-12T14:32:48.527Z,5.97
2022-10-12T14:35:18.025Z,9.68
2022-10-12T14:37:45.253Z,7.47
2022-10-12T14:40:30.836Z,6.75
2022-10-12T14:43:00.748Z,8.10
2022-10-12T14:45:27.332Z,7.45
2022-10-12T14:47:54.955Z,8.77
2022-10-12T14:50:22.311Z,10.07
2022-10-12T14:52:50.409Z,8.82
2022-10-12T14:55:21.891Z,10.82
2022-10-12T14:57:49.270Z,9.88
2022-10-12T15:00:26.811Z,5.68
2022-10-12T15:02:53.623Z,8.48
2022-10-12T15:05:24.156Z,6.40
2022-10-12T15:07:51.313Z,10.18
2022-10-12T15:10:19.218Z,9.55
2022-10-12T15:12:45.978Z,10.43
2022-10-12T15:15:18.601Z,8.52
2022-10-12T15:17:45.101Z,9.68
2022-10-12T15:20:13.451Z,9.02
2022-10-12T15:22:40.184Z,10.93
2022-10-12T15:25:14.716Z,8.18
2022-10-12T15:27:41.441Z,8.85
2022-10-12T15:30:08.314Z,11.52
2022-10-12T15:32:35.106Z,8.30
2022-10-12T15:35:09.008Z,8.65
2022-10-12T15:37:35.470Z,8.63
2022-10-12T15:40:03.315Z,12.40
2022-10-12T15:42:30.943Z,8.07
2022-10-12T15:44:57.390Z,9.68
2022-10-12T15:47:24.044Z,8.38
2022-10-12T15:49:50.561Z,10.68
2022-10-12T15:52:17.443Z,9.20
2022-10-12T15:54:48.120Z,11.50
2022-10-12T15:57:17.336Z,7.43
2022-10-12T15:59:44.612Z,7.18
2022-10-12T16:02:12.264Z,8.68
2022-10-12T16:04:38.741Z,8.88
2022-10-12T16:07:05.239Z,9.00
2022-10-12T16:09:31.757Z,11.73
2022-10-12T16:11:58.243Z,12.60
2022-10-12T16:14:24.895Z,13.52
2022-10-12T16:16:51.418Z,10.30
2022-10-12T16:19:17.897Z,10.50
2022-10-12T16:21:44.399Z,12.25
2022-10-12T16:24:10.903Z,10.25
2022-10-12T16:26:41.413Z,8.68
2022-10-12T16:29:10.704Z,11.10
2022-10-12T16:31:37.189Z,12.93
2022-10-12T16:34:03.671Z,12.52
2022-10-12T16:36:30.204Z,10.23
2022-10-12T16:38:57.976Z,8.80
2022-10-12T16:41:24.478Z,15.93
2022-10-12T16:43:53.885Z,15.52
2022-10-12T16:46:20.395Z,29.98
2022-10-12T16:48:46.896Z,16.70
2022-10-12T16:51:13.544Z,19.40
2022-10-12T16:53:42.368Z,19.55
2022-10-12T16:56:09.109Z,10.77
2022-10-12T16:58:35.572Z,11.57
2022-10-12T17:01:12.105Z,12.38
2022-10-12T17:03:38.775Z,12.52
2022-10-12T17:06:05.389Z,8.07
2022-10-12T17:08:33.558Z,12.55
2022-10-12T17:11:04.898Z,10.77
2022-10-12T17:13:32.874Z,8.75
2022-10-12T17:16:22.973Z,14.18
2022-10-12T17:18:49.428Z,11.50
2022-10-12T17:21:15.882Z,8.48
2022-10-12T17:23:42.880Z,10.40
2022-10-12T17:26:09.417Z,6.85
2022-10-12T17:28:39.651Z,9.57
2022-10-12T17:31:11.427Z,9.65
2022-10-12T17:33:38.215Z,13.20
2022-10-12T17:36:05.507Z,10.43
2022-10-12T17:38:34.598Z,7.47
2022-10-12T17:41:01.724Z,8.73
2022-10-12T17:43:30.584Z,11.98
2022-10-12T17:45:57.133Z,11.32
2022-10-12T17:48:24.810Z,10.30
2022-10-12T17:50:51.425Z,14.13
2022-10-12T17:53:18.052Z,8.63
2022-10-12T17:55:48.497Z,9.95
2022-10-12T17:58:15.634Z,10.25
2022-10-12T18:00:44.665Z,11.48
2022-10-12T18:03:11.713Z,11.60
2022-10-12T18:05:38.330Z,11.10
2022-10-12T18:08:04.960Z,9.55
2022-10-12T18:10:31.522Z,10.13
2022-10-12T18:12:58.008Z,10.77
2022-10-12T18:15:24.494Z,9.88
2022-10-12T18:17:50.998Z,10.63
2022-10-12T18:20:18.547Z,11.60
2022-10-12T18:22:45.175Z,11.95
2022-10-12T18:25:11.716Z,11.57
2022-10-12T18:27:38.230Z,14.85
2022-10-12T18:30:04.939Z,13.10
2022-10-12T18:32:31.431Z,13.82
2022-10-12T18:34:58.296Z,14.35
2022-10-12T18:37:25.023Z,12.43
2022-10-12T18:39:51.563Z,15.23
2022-10-12T18:42:18.375Z,13.50
2022-10-12T18:44:45.067Z,11.45
2022-10-12T18:47:11.552Z,19.45
2022-10-12T18:49:38.053Z,15.00
2022-10-12T18:52:04.675Z,15.43
2022-10-12T18:54:31.497Z,15.07
2022-10-12T18:56:58.231Z,16.83
2022-10-12T18:59:24.662Z,22.67
2022-10-12T19:01:51.536Z,18.77
2022-10-12T19:04:18.950Z,26.70
2022-10-12T19:06:45.473Z,16.65
2022-10-12T19:09:16.214Z,17.05
2022-10-12T19:11:42.738Z,17.80
2022-10-12T19:14:13.634Z,17.08
2022-10-12T19:16:40.450Z,16.45
2022-10-12T19:19:08.053Z,15.18
2022-10-12T19:21:34.932Z,15.27
2022-10-12T19:24:02.297Z,15.38
2022-10-12T19:26:28.804Z,14.95
2022-10-12T19:28:56.430Z,16.67
2022-10-12T19:31:24.694Z,13.18
2022-10-12T19:33:51.301Z,18.05
2022-10-12T19:36:21.247Z,19.05
2022-10-12T19:38:47.745Z,14.43
2022-10-12T19:41:14.778Z,15.55
2022-10-12T19:43:43.174Z,17.05
2022-10-12T19:46:10.454Z,16.08
2022-10-12T19:48:38.016Z,17.27
2022-10-12T19:51:06.596Z,14.45
2022-10-12T19:53:33.149Z,17.48
2022-10-12T19:56:00.863Z,14.50
2022-10-12T19:58:27.776Z,15.18
2022-10-12T20:01:00.254Z,19.30
2022-10-12T20:03:26.851Z,14.88
2022-10-12T20:05:54.022Z,13.52
2022-10-12T20:08:20.447Z,17.17
2022-10-12T20:10:47.535Z,17.83
2022-10-12T20:13:14.400Z,18.08
2022-10-12T20:15:40.995Z,14.18
2022-10-12T20:18:07.614Z,18.05
2022-10-12T20:20:34.135Z,14.80
2022-10-12T20:23:00.818Z,19.00
2022-10-12T20:25:27.418Z,18.60
2022-10-12T20:28:02.556Z,15.98
2022-10-12T20:30:29.449Z,17.63
2022-10-12T20:32:55.937Z,18.15
2022-10-12T20:35:22.393Z,19.70
2022-10-12T20:37:48.883Z,16.92
2022-10-12T20:40:15.375Z,15.82
2022-10-12T20:42:41.839Z,18.15
2022-10-12T20:45:10.457Z,15.90
2022-10-12T20:47:36.948Z,14.48
2022-10-12T20:50:03.527Z,28.60
2022-10-12T20:52:30.116Z,16.83
2022-10-12T20:54:56.635Z,18.63
2022-10-12T20:57:23.113Z,21.48
2022-10-12T20:59:50.895Z,18.52
2022-10-12T21:02:17.815Z,17.88
2022-10-12T21:04:44.369Z,16.55
2022-10-12T21:07:17.748Z,17.58
2022-10-12T21:09:48.270Z,17.75
2022-10-12T21:12:17.913Z,19.58
2022-10-12T21:14:44.575Z,18.30
2022-10-12T21:17:11.155Z,21.00
2022-10-12T21:19:37.602Z,24.02
2022-10-12T21:22:04.052Z,18.05
2022-10-12T21:24:30.610Z,16.60
2022-10-12T21:27:00.765Z,24.77
2022-10-12T21:29:27.348Z,20.27
2022-10-12T21:31:54.008Z,20.52
2022-10-12T21:34:21.770Z,21.10
2022-10-12T21:36:48.276Z,20.58
2022-10-12T21:39:15.530Z,20.27
2022-10-12T21:41:42.116Z,17.92
2022-10-12T21:44:09.678Z,19.45
2022-10-12T21:46:39.019Z,18.90
2022-10-12T21:49:07.867Z,17.80
2022-10-12T21:51:34.997Z,22.77
2022-10-12T21:54:01.437Z,17.33
2022-10-12T21:56:29.269Z,24.13
2022-10-12T21:59:00.373Z,17.60
2022-10-12T22:01:31.579Z,18.25
2022-10-12T22:03:59.457Z,22.90
2022-10-12T22:06:30.055Z,24.67
2022-10-12T22:09:11.590Z,21.05
2022-10-12T22:11:38.122Z,21.65
2022-10-12T22:14:09.020Z,21.15
2022-10-12T22:16:39.328Z,22.08
2022-10-12T22:19:07.242Z,20.90
2022-10-12T22:21:34.480Z,24.15
2022-10-12T22:24:02.603Z,22.50
2022-10-12T22:26:29.397Z,19.35
2022-10-12T22:28:57.562Z,19.48
2022-10-12T22:31:24.829Z,23.85
2022-10-12T22:33:51.681Z,20.20
2022-10-12T22:36:18.225Z,19.23
2022-10-12T22:38:44.892Z,20.60
2022-10-12T22:41:19.143Z,20.48
2022-10-12T22:43:45.750Z,28.08
2022-10-12T22:46:12.301Z,25.83
2022-10-12T22:48:38.919Z,19.83
2022-10-12T22:51:08.163Z,22.92
2022-10-12T22:53:35.291Z,18.65
2022-10-12T22:56:12.425Z,19.63
2022-10-12T22:58:38.906Z,24.50
2022-10-12T23:01:12.732Z,23.67
2022-10-12T23:03:39.694Z,19.92
2022-10-12T23:06:09.828Z,20.70
2022-10-12T23:08:36.362Z,25.65
2022-10-12T23:11:08.198Z,22.42
2022-10-12T23:13:35.403Z,19.20
2022-10-12T23:16:06.354Z,21.23
2022-10-12T23:18:34.078Z,26.40
2022-10-12T23:21:03.684Z,18.88
2022-10-12T23:23:30.238Z,20.40
2022-10-12T23:26:04.279Z,21.02
2022-10-12T23:28:30.885Z,21.65
2022-10-12T23:30:57.475Z,21.65
2022-10-12T23:33:24.001Z,21.92
2022-10-12T23:35:57.235Z,22.45
2022-10-12T23:38:24.014Z,24.60
2022-10-12T23:40:50.506Z,23.15
2022-10-12T23:43:16.919Z,22.80
2022-10-12T23:45:44.301Z,24.08
2022-10-12T23:48:10.871Z,20.98
2022-10-12T23:50:38.967Z,25.00
2022-10-12T23:53:06.044Z,19.55
2022-10-12T23:55:32.898Z,20.02
2022-10-12T23:57:59.404Z,19.58
